createdAt,value
2022-08-03T00:00:26.064Z,16.12
2022-08-03T00:02:53.120Z,16.08
2022-08-03T00:05:20.042Z,16.06
2022-08-03T00:07:46.925Z,16.01
2022-08-03T00:10:16.550Z,15.97
2022-08-03T00:12:43.388Z,15.98
2022-08-03T00:15:15.063Z,15.95
2022-08-03T00:17:53.432Z,15.93
2022-08-03T00:20:21.735Z,15.93
2022-08-03T00:22:49.044Z,15.89
2022-08-03T00:25:16.312Z,15.82
2022-08-03T00:27:43.189Z,15.72
2022-08-03T00:30:10.503Z,15.70
2022-08-03T00:32:38.843Z,15.65
2022-08-03T00:35:20.440Z,15.59
2022-08-03T00:37:58.389Z,15.57
2022-08-03T00:40:25.227Z,15.53
2022-08-03T00:42:53.998Z,15.53
2022-08-03T00:45:21.622Z,15.46
2022-08-03T00:47:48.591Z,15.46
2022-08-03T00:50:16.591Z,15.43
2022-08-03T00:52:43.709Z,15.41
2022-08-03T00:55:10.899Z,15.37
2022-08-03T00:57:39.443Z,15.32
2022-08-03T01:00:07.895Z,15.27
2022-08-03T01:02:34.995Z,15.25
2022-08-03T01:05:01.864Z,15.23
2022-08-03T01:07:44.029Z,15.21
2022-08-03T01:10:28.973Z,15.19
2022-08-03T01:12:58.439Z,15.12
2022-08-03T01:15:30.060Z,15.11
2022-08-03T01:18:03.243Z,15.06
2022-08-03T01:20:33.310Z,15.05
2022-08-03T01:23:16.172Z,15.01
2022-08-03T01:25:55.923Z,14.97
2022-08-03T01:28:25.527Z,14.94
2022-08-03T01:30:54.060Z,14.93
2022-08-03T01:33:24.235Z,14.92
2022-08-03T01:35:57.202Z,14.89
2022-08-03T01:38:26.025Z,14.87
2022-08-03T01:40:54.049Z,14.83
2022-08-03T01:44:27.698Z,14.80
2022-08-03T01:46:11.512Z,14.79
2022-08-03T01:48:39.595Z,14.76
2022-08-03T01:51:07.939Z,14.73
2022-08-03T01:53:35.674Z,14.71
2022-08-03T01:56:03.705Z,14.67
2022-08-03T01:58:32.000Z,14.67
2022-08-03T02:01:00.883Z,14.66
2022-08-03T02:03:29.549Z,14.61
2022-08-03T02:06:58.979Z,14.60
2022-08-03T02:08:45.140Z,14.55
2022-08-03T02:11:12.963Z,14.51
2022-08-03T02:13:40.448Z,14.48
2022-08-03T02:16:08.279Z,14.44
2022-08-03T02:18:35.168Z,14.43
2022-08-03T02:21:02.808Z,14.40
2022-08-03T02:23:38.106Z,14.39
2022-08-03T02:26:06.777Z,14.40
2022-08-03T02:28:38.293Z,14.41
2022-08-03T02:31:07.011Z,14.36
2022-08-03T02:33:38.844Z,14.35
2022-08-03T02:36:06.479Z,14.34
2022-08-03T02:38:34.323Z,14.31
2022-08-03T02:41:05.005Z,14.28
2022-08-03T02:43:57.699Z,14.27
2022-08-03T02:46:24.106Z,14.23
2022-08-03T02:48:52.168Z,14.22
2022-08-03T02:51:20.358Z,14.20
2022-08-03T02:53:48.164Z,14.18
2022-08-03T02:56:16.105Z,14.14
2022-08-03T02:58:44.180Z,14.14
2022-08-03T03:01:12.383Z,14.12
2022-08-03T03:03:44.945Z,14.07
2022-08-03T03:06:12.664Z,14.04
2022-08-03T03:08:42.256Z,14.04
2022-08-03T03:11:10.310Z,14.04
2022-08-03T03:13:38.639Z,13.99
2022-08-03T03:16:06.095Z,13.96
2022-08-03T03:18:33.915Z,13.94
2022-08-03T03:21:01.564Z,13.93
2022-08-03T03:23:28.748Z,13.90
2022-08-03T03:25:56.153Z,13.84
2022-08-03T03:28:24.300Z,13.82
2022-08-03T03:30:52.986Z,13.83
2022-08-03T03:33:21.108Z,13.80
2022-08-03T03:35:48.229Z,13.73
2022-08-03T03:38:15.048Z,13.72
2022-08-03T03:40:41.913Z,13.67
2022-08-03T03:43:09.342Z,13.67
2022-08-03T03:45:36.546Z,13.62
2022-08-03T03:48:06.945Z,13.62
2022-08-03T03:50:34.774Z,13.58
2022-08-03T03:53:01.909Z,13.60
2022-08-03T03:55:28.950Z,13.57
2022-08-03T03:57:55.910Z,13.57
2022-08-03T04:00:23.065Z,13.58
2022-08-03T04:02:49.911Z,13.60
2022-08-03T04:05:16.785Z,13.53
2022-08-03T04:07:52.432Z,13.52
2022-08-03T04:10:21.251Z,13.55
2022-08-03T04:12:49.944Z,13.51
2022-08-03T04:15:19.288Z,13.55
2022-08-03T04:17:46.854Z,13.58
2022-08-03T04:20:14.075Z,13.60
2022-08-03T04:22:41.397Z,13.64
2022-08-03T04:25:10.316Z,13.70
2022-08-03T04:27:40.330Z,13.76
2022-08-03T04:30:08.082Z,13.81
2022-08-03T04:32:35.619Z,14.04
2022-08-03T04:35:02.941Z,14.21
2022-08-03T04:37:40.069Z,14.40
2022-08-03T04:40:08.944Z,14.63
2022-08-03T04:42:37.602Z,14.88
2022-08-03T04:45:05.086Z,15.04
2022-08-03T04:47:32.989Z,15.10
2022-08-03T04:50:03.531Z,15.30
2022-08-03T04:52:30.930Z,15.46
2022-08-03T04:54:57.811Z,15.59
2022-08-03T04:57:24.679Z,15.75
2022-08-03T04:59:54.630Z,15.83
2022-08-03T05:02:23.897Z,16.10
2022-08-03T05:04:50.782Z,16.31
2022-08-03T05:07:22.710Z,16.48
2022-08-03T05:09:52.696Z,16.75
2022-08-03T05:12:25.847Z,16.91
2022-08-03T05:14:54.211Z,17.15
2022-08-03T05:17:21.051Z,17.14
2022-08-03T05:19:47.928Z,16.85
2022-08-03T05:22:14.963Z,16.93
2022-08-03T05:24:41.986Z,17.10
2022-08-03T05:27:08.828Z,17.06
2022-08-03T05:29:35.640Z,17.13
2022-08-03T05:32:16.195Z,17.45
2022-08-03T05:34:43.197Z,17.53
2022-08-03T05:37:10.109Z,17.54
2022-08-03T05:39:37.053Z,17.63
2022-08-03T05:42:04.033Z,17.83
2022-08-03T05:44:30.902Z,17.86
2022-08-03T05:46:58.635Z,18.01
2022-08-03T05:49:25.507Z,18.51
2022-08-03T05:51:59.964Z,18.63
2022-08-03T05:54:56.897Z,18.80
2022-08-03T05:57:22.032Z,18.76
2022-08-03T05:59:54.823Z,19.23
2022-08-03T06:02:28.643Z,19.05
2022-08-03T06:04:55.506Z,19.16
2022-08-03T06:07:22.565Z,19.48
2022-08-03T06:10:34.492Z,19.74
2022-08-03T06:12:36.660Z,19.87
2022-08-03T06:15:04.625Z,20.11
2022-08-03T06:17:37.692Z,20.13
2022-08-03T06:20:05.602Z,19.94
2022-08-03T06:22:32.422Z,20.17
2022-08-03T06:24:59.976Z,20.49
2022-08-03T06:27:37.113Z,20.57
2022-08-03T06:30:04.811Z,20.54
2022-08-03T06:32:31.677Z,20.43
2022-08-03T06:34:58.515Z,20.90
2022-08-03T06:37:25.405Z,21.38
2022-08-03T06:39:52.452Z,21.66
2022-08-03T06:42:19.680Z,21.40
2022-08-03T06:44:47.563Z,21.79
2022-08-03T06:47:14.393Z,22.28
2022-08-03T06:49:41.294Z,22.49
2022-08-03T06:52:08.181Z,22.62
2022-08-03T06:54:35.777Z,22.77
2022-08-03T06:57:02.925Z,23.16
2022-08-03T07:00:10.699Z,23.09
2022-08-03T07:02:19.239Z,23.29
2022-08-03T07:04:49.866Z,23.68
2022-08-03T07:07:16.827Z,23.92
2022-08-03T07:09:56.662Z,23.76
2022-08-03T07:12:24.618Z,23.83
2022-08-03T07:14:51.488Z,24.15
2022-08-03T07:17:18.316Z,24.12
2022-08-03T07:19:45.142Z,24.32
2022-08-03T07:22:12.047Z,24.62
2022-08-03T07:24:38.929Z,24.47
2022-08-03T07:27:05.767Z,24.55
2022-08-03T07:29:34.811Z,24.90
2022-08-03T07:32:02.235Z,25.27
2022-08-03T07:34:29.179Z,25.25
2022-08-03T07:36:56.393Z,25.72
2022-08-03T07:39:23.257Z,25.65
2022-08-03T07:41:50.107Z,26.01
2022-08-03T07:44:17.525Z,25.95
2022-08-03T07:46:44.407Z,25.99
2022-08-03T07:49:11.398Z,25.99
2022-08-03T07:51:38.380Z,26.39
2022-08-03T07:54:05.441Z,26.70
2022-08-03T07:56:32.313Z,27.16
2022-08-03T07:58:59.273Z,27.32
2022-08-03T08:01:26.122Z,27.69
2022-08-03T08:03:53.716Z,27.71
2022-08-03T08:06:21.401Z,27.67
2022-08-03T08:08:48.273Z,27.97
2022-08-03T08:11:15.216Z,28.08
2022-08-03T08:13:42.030Z,28.40
2022-08-03T08:16:09.101Z,28.68
2022-08-03T08:18:35.978Z,28.83
2022-08-03T08:21:02.817Z,28.87
2022-08-03T08:23:42.701Z,28.88
2022-08-03T08:26:12.111Z,28.99
2022-08-03T08:28:39.316Z,29.18
2022-08-03T08:31:06.144Z,29.54
2022-08-03T08:33:48.315Z,29.77
2022-08-03T08:36:19.837Z,29.99
2022-08-03T08:38:46.853Z,30.01
2022-08-03T08:41:14.823Z,30.33
2022-08-03T08:43:42.168Z,30.40
2022-08-03T08:46:12.477Z,30.72
2022-08-03T08:48:43.967Z,30.91
2022-08-03T08:51:12.019Z,30.66
2022-08-03T08:53:40.855Z,30.96
2022-08-03T08:56:08.788Z,31.19
2022-08-03T08:58:37.665Z,31.35
2022-08-03T09:01:05.898Z,31.44
2022-08-03T09:03:33.457Z,31.42
2022-08-03T09:06:00.625Z,31.65
2022-08-03T09:08:28.590Z,31.56
2022-08-03T09:10:55.533Z,31.72
2022-08-03T09:13:22.616Z,31.73
2022-08-03T09:16:08.452Z,31.40
2022-08-03T09:18:35.308Z,31.46
2022-08-03T09:21:33.560Z,31.43
2022-08-03T09:24:03.769Z,31.52
2022-08-03T09:26:32.440Z,31.59
2022-08-03T09:29:04.881Z,31.38
2022-08-03T09:31:37.392Z,31.76
2022-08-03T09:34:05.762Z,31.93
2022-08-03T09:36:34.538Z,32.03
2022-08-03T09:39:05.131Z,32.31
2022-08-03T09:41:32.533Z,31.97
2022-08-03T09:43:59.801Z,32.08
2022-08-03T09:46:26.689Z,32.21
2022-08-03T09:48:53.632Z,32.33
2022-08-03T09:51:32.796Z,32.35
2022-08-03T09:54:18.893Z,32.57
2022-08-03T09:56:47.499Z,32.69
2022-08-03T09:59:26.192Z,32.59
2022-08-03T10:01:53.463Z,32.80
2022-08-03T10:04:20.430Z,32.43
2022-08-03T10:07:01.743Z,32.46
2022-08-03T10:09:28.598Z,32.12
2022-08-03T10:11:55.494Z,32.53
2022-08-03T10:14:22.978Z,32.80
2022-08-03T10:16:50.231Z,32.84
2022-08-03T10:19:17.218Z,32.73
2022-08-03T10:21:53.548Z,32.84
2022-08-03T10:24:29.965Z,33.03
2022-08-03T10:27:01.152Z,33.10
2022-08-03T10:29:28.515Z,33.22
2022-08-03T10:31:58.648Z,33.03
2022-08-03T10:34:27.054Z,33.09
2022-08-03T10:36:56.511Z,33.22
2022-08-03T10:39:24.598Z,32.68
2022-08-03T10:41:51.916Z,32.46
2022-08-03T10:44:20.873Z,32.63
2022-08-03T10:46:48.489Z,32.51
2022-08-03T10:49:17.164Z,32.75
2022-08-03T10:52:01.130Z,32.83
2022-08-03T10:54:38.652Z,33.08
2022-08-03T10:57:35.987Z,33.24
2022-08-03T11:00:18.664Z,32.99
2022-08-03T11:03:04.169Z,32.89
2022-08-03T11:05:32.354Z,32.74
2022-08-03T11:08:18.151Z,32.76
2022-08-03T11:10:45.242Z,32.74
2022-08-03T11:13:16.906Z,32.54
2022-08-03T11:15:45.976Z,32.94
2022-08-03T11:18:13.226Z,33.15
2022-08-03T11:20:49.056Z,33.21
2022-08-03T11:23:16.753Z,33.30
2022-08-03T11:26:09.601Z,33.18
2022-08-03T11:28:36.528Z,33.37
2022-08-03T11:31:46.763Z,33.42
2022-08-03T11:34:09.638Z,33.72
2022-08-03T11:36:55.135Z,33.91
2022-08-03T11:39:22.080Z,33.78
2022-08-03T11:41:48.906Z,33.71
2022-08-03T11:44:34.525Z,33.30
2022-08-03T11:47:01.456Z,33.78
2022-08-03T11:49:28.361Z,33.63
2022-08-03T11:51:55.284Z,33.53
2022-08-03T11:54:22.317Z,33.94
2022-08-03T11:56:49.746Z,33.52
2022-08-03T11:59:21.681Z,33.76
2022-08-03T12:01:49.555Z,33.91
2022-08-03T12:04:16.554Z,33.96
2022-08-03T12:06:59.778Z,34.30
2022-08-03T12:09:26.625Z,34.20
2022-08-03T12:12:00.486Z,34.25
2022-08-03T12:14:49.020Z,34.50
2022-08-03T12:17:15.970Z,34.35
2022-08-03T12:19:43.405Z,34.48
2022-08-03T12:22:10.349Z,34.33
2022-08-03T12:24:43.939Z,34.50
2022-08-03T12:27:10.817Z,34.17
2022-08-03T12:29:37.748Z,33.50
2022-08-03T12:32:04.757Z,33.73
2022-08-03T12:34:50.429Z,34.05
2022-08-03T12:37:22.662Z,33.69
2022-08-03T12:40:00.476Z,33.27
2022-08-03T12:42:31.585Z,33.34
2022-08-03T12:44:58.456Z,33.41
2022-08-03T12:47:25.309Z,33.53
2022-08-03T12:49:53.234Z,34.01
2022-08-03T12:52:21.331Z,34.05
2022-08-03T12:54:58.198Z,34.30
2022-08-03T12:57:25.276Z,34.43
2022-08-03T12:59:53.454Z,34.25
2022-08-03T13:02:23.401Z,34.40
2022-08-03T13:04:51.421Z,34.64
2022-08-03T13:07:19.666Z,34.78
2022-08-03T13:09:48.485Z,35.05
2022-08-03T13:12:22.093Z,34.50
2022-08-03T13:14:50.269Z,34.66
2022-08-03T13:17:17.341Z,34.29
2022-08-03T13:19:45.147Z,34.35
2022-08-03T13:22:11.967Z,34.41
2022-08-03T13:24:38.847Z,34.37
2022-08-03T13:28:01.936Z,34.53
2022-08-03T13:29:52.546Z,34.81
2022-08-03T13:32:19.877Z,35.15
2022-08-03T13:34:46.824Z,35.33
2022-08-03T13:37:13.999Z,35.01
2022-08-03T13:39:58.354Z,35.10
2022-08-03T13:42:31.314Z,35.36
2022-08-03T13:44:58.708Z,35.48
2022-08-03T13:47:25.931Z,35.59
2022-08-03T13:50:00.049Z,35.70
2022-08-03T13:52:29.709Z,35.49
2022-08-03T13:54:56.569Z,35.35
2022-08-03T13:58:04.606Z,35.07
2022-08-03T14:00:10.564Z,35.09
2022-08-03T14:02:37.505Z,35.12
2022-08-03T14:05:04.510Z,34.98
2022-08-03T14:07:31.366Z,34.85
2022-08-03T14:09:58.181Z,35.12
2022-08-03T14:12:25.034Z,34.94
2022-08-03T14:14:51.862Z,35.15
2022-08-03T14:17:19.149Z,35.40
2022-08-03T14:19:53.575Z,35.50
2022-08-03T14:22:21.158Z,35.69
2022-08-03T14:24:48.032Z,35.67
2022-08-03T14:27:16.522Z,35.58
2022-08-03T14:29:43.420Z,35.16
2022-08-03T14:32:13.172Z,34.85
2022-08-03T14:34:40.714Z,34.60
2022-08-03T14:37:07.636Z,34.79
2022-08-03T14:42:21.322Z,34.90
2022-08-03T14:44:48.203Z,35.28
2022-08-03T14:47:15.222Z,35.15
2022-08-03T14:50:37.085Z,35.35
2022-08-03T14:52:29.149Z,35.82
2022-08-03T14:54:56.041Z,36.24
2022-08-03T14:57:31.859Z,36.22
2022-08-03T14:59:58.692Z,36.73
2022-08-03T15:02:25.649Z,36.86
2022-08-03T15:04:52.752Z,37.05
2022-08-03T15:07:19.836Z,37.12
2022-08-03T15:09:46.823Z,37.22
2022-08-03T15:12:13.714Z,37.17
2022-08-03T15:14:40.614Z,37.37
2022-08-03T15:17:07.739Z,37.60
2022-08-03T15:20:02.353Z,37.76
2022-08-03T15:22:24.828Z,37.84
2022-08-03T15:24:52.599Z,38.00
2022-08-03T15:27:19.623Z,38.07
2022-08-03T15:30:07.583Z,38.16
2022-08-03T15:32:34.022Z,38.35
2022-08-03T15:35:01.006Z,38.30
2022-08-03T15:37:28.076Z,38.12
2022-08-03T15:39:59.622Z,38.06
2022-08-03T15:42:28.488Z,37.81
2022-08-03T15:44:55.373Z,37.68
2022-08-03T15:47:22.579Z,37.73
2022-08-03T15:49:49.663Z,38.00
2022-08-03T15:52:16.508Z,38.18
2022-08-03T15:54:43.419Z,38.26
2022-08-03T15:57:11.233Z,37.99
2022-08-03T15:59:38.101Z,38.37
2022-08-03T16:02:04.983Z,38.43
2022-08-03T16:04:31.842Z,38.42
2022-08-03T16:06:58.693Z,38.48
2022-08-03T16:09:43.329Z,38.00
2022-08-03T16:12:15.752Z,37.03
2022-08-03T16:14:52.404Z,36.30
2022-08-03T16:17:20.706Z,35.56
2022-08-03T16:19:47.755Z,35.21
2022-08-03T16:22:14.714Z,34.61
2022-08-03T16:24:41.592Z,33.89
2022-08-03T16:27:17.316Z,33.39
2022-08-03T16:29:55.333Z,33.05
2022-08-03T16:32:22.193Z,32.70
2022-08-03T16:34:49.047Z,32.50
2022-08-03T16:37:37.774Z,32.08
2022-08-03T16:40:04.656Z,31.82
2022-08-03T16:42:33.597Z,31.67
2022-08-03T16:45:00.457Z,31.44
2022-08-03T16:47:27.288Z,31.22
2022-08-03T16:49:56.417Z,31.11
2022-08-03T16:52:24.055Z,30.94
2022-08-03T16:54:53.224Z,30.81
2022-08-03T16:57:58.400Z,30.68
2022-08-03T17:00:08.807Z,30.45
2022-08-03T17:02:36.253Z,30.23
2022-08-03T17:05:03.428Z,30.07
2022-08-03T17:07:30.653Z,29.86
2022-08-03T17:09:57.722Z,29.59
2022-08-03T17:12:26.892Z,29.37
2022-08-03T17:14:54.014Z,29.11
2022-08-03T17:17:37.621Z,28.91
2022-08-03T17:20:18.827Z,28.76
2022-08-03T17:22:49.744Z,28.49
2022-08-03T17:25:22.149Z,28.37
2022-08-03T17:28:49.701Z,28.19
2022-08-03T17:30:51.362Z,28.07
2022-08-03T17:33:20.874Z,27.94
2022-08-03T17:35:47.746Z,27.90
2022-08-03T17:38:22.378Z,27.78
2022-08-03T17:40:52.040Z,27.74
2022-08-03T17:44:13.784Z,27.69
2022-08-03T17:46:07.219Z,27.61
2022-08-03T17:48:37.781Z,27.53
2022-08-03T17:51:17.581Z,27.46
2022-08-03T17:53:48.135Z,27.39
2022-08-03T17:56:45.125Z,27.30
2022-08-03T17:59:15.039Z,27.24
2022-08-03T18:01:58.185Z,27.07
2022-08-03T18:04:38.410Z,27.04
2022-08-03T18:10:06.752Z,27.00
2022-08-03T18:12:47.630Z,27.01
2022-08-03T18:15:22.968Z,26.95
2022-08-03T18:17:55.313Z,26.86
2022-08-03T18:20:42.072Z,26.77
2022-08-03T18:23:20.403Z,26.75
2022-08-03T18:26:00.657Z,26.57
2022-08-03T18:28:28.874Z,26.51
2022-08-03T18:30:55.902Z,26.50
2022-08-03T18:34:16.658Z,26.48
2022-08-03T18:36:11.032Z,26.32
2022-08-03T18:38:46.457Z,26.25
2022-08-03T18:44:08.323Z,26.10
2022-08-03T18:46:36.176Z,26.08
2022-08-03T18:49:08.326Z,26.05
2022-08-03T18:51:43.224Z,25.97
2022-08-03T18:54:45.643Z,25.94
2022-08-03T18:57:19.204Z,25.83
2022-08-03T18:59:51.687Z,25.66
2022-08-03T19:02:30.316Z,25.58
2022-08-03T19:05:03.385Z,25.48
2022-08-03T19:07:36.028Z,25.40
2022-08-03T19:10:07.581Z,25.26
2022-08-03T19:12:45.714Z,25.19
2022-08-03T19:15:13.709Z,25.11
2022-08-03T19:17:52.769Z,25.07
2022-08-03T19:20:21.712Z,24.96
2022-08-03T19:22:50.893Z,24.91
2022-08-03T19:25:17.919Z,24.85
2022-08-03T19:27:46.849Z,24.79
2022-08-03T19:30:26.218Z,24.71
2022-08-03T19:32:54.008Z,24.61
2022-08-03T19:35:52.138Z,24.52
2022-08-03T19:38:08.671Z,24.44
2022-08-03T19:40:42.092Z,24.38
2022-08-03T19:43:14.340Z,24.32
2022-08-03T19:46:04.452Z,24.22
2022-08-03T19:48:33.253Z,24.12
2022-08-03T19:51:02.477Z,24.06
2022-08-03T19:53:44.873Z,24.02
2022-08-03T19:56:14.093Z,23.96
2022-08-03T19:58:42.563Z,23.89
2022-08-03T20:01:19.163Z,23.83
2022-08-03T20:03:47.429Z,23.75
2022-08-03T20:06:16.904Z,23.71
2022-08-03T20:08:44.403Z,23.62
2022-08-03T20:11:11.405Z,23.61
2022-08-03T20:13:39.136Z,23.51
2022-08-03T20:16:06.194Z,23.46
2022-08-03T20:18:39.289Z,23.38
2022-08-03T20:21:15.062Z,23.31
2022-08-03T20:23:58.083Z,23.25
2022-08-03T20:26:30.222Z,23.15
2022-08-03T20:29:00.771Z,23.10
2022-08-03T20:31:36.663Z,23.03
2022-08-03T20:34:03.802Z,22.94
2022-08-03T20:36:30.701Z,22.93
2022-08-03T20:38:58.241Z,22.89
2022-08-03T20:41:25.398Z,22.85
2022-08-03T20:43:52.268Z,22.80
2022-08-03T20:46:29.133Z,22.70
2022-08-03T20:49:04.338Z,22.64
2022-08-03T20:51:49.762Z,22.53
2022-08-03T20:54:22.550Z,22.46
2022-08-03T20:56:57.477Z,22.39
2022-08-03T20:59:25.055Z,22.30
2022-08-03T21:01:51.885Z,22.25
2022-08-03T21:04:21.683Z,22.20
2022-08-03T21:06:57.657Z,22.19
2022-08-03T21:12:15.451Z,22.10
2022-08-03T21:13:04.040Z,27.01
2022-08-03T21:13:04.167Z,26.17
2022-08-03T21:13:13.764Z,22.14
2022-08-03T21:15:02.292Z,22.03
2022-08-03T21:17:40.648Z,21.99
2022-08-03T21:20:09.368Z,21.94
2022-08-03T21:22:37.649Z,21.88
2022-08-03T21:25:06.325Z,21.82
2022-08-03T21:27:33.165Z,21.76
2022-08-03T21:30:01.038Z,21.68
2022-08-03T21:32:32.316Z,21.62
2022-08-03T21:35:00.562Z,21.56
2022-08-03T21:37:28.081Z,21.54
2022-08-03T21:39:55.555Z,21.48
2022-08-03T21:42:22.928Z,21.43
2022-08-03T21:44:50.670Z,21.37
2022-08-03T21:47:18.120Z,21.30
2022-08-03T21:50:07.080Z,21.24
2022-08-03T21:52:35.417Z,21.16
2022-08-03T21:55:05.783Z,21.14
2022-08-03T21:57:34.096Z,21.09
2022-08-03T22:00:12.783Z,21.06
2022-08-03T22:02:44.837Z,21.00
2022-08-03T22:05:19.969Z,20.94
2022-08-03T22:08:07.532Z,20.92
2022-08-03T22:10:34.363Z,20.88
2022-08-03T22:13:01.188Z,20.87
2022-08-03T22:15:28.029Z,20.80
2022-08-03T22:17:57.160Z,20.76
2022-08-03T22:20:24.463Z,20.72
2022-08-03T22:22:56.738Z,20.66
2022-08-03T22:25:25.991Z,20.64
2022-08-03T22:27:53.913Z,20.57
2022-08-03T22:30:21.174Z,20.56
2022-08-03T22:32:52.620Z,20.51
2022-08-03T22:35:21.024Z,20.44
2022-08-03T22:37:53.033Z,20.36
2022-08-03T22:40:19.873Z,20.29
2022-08-03T22:42:47.192Z,20.26
2022-08-03T22:46:07.013Z,20.24
2022-08-03T22:48:01.311Z,20.20
2022-08-03T22:50:31.467Z,20.16
2022-08-03T22:53:01.195Z,20.13
2022-08-03T22:55:28.193Z,20.10
2022-08-03T22:57:55.700Z,20.08
2022-08-03T23:00:23.435Z,20.00
2022-08-03T23:02:53.633Z,19.92
2022-08-03T23:06:02.557Z,19.88
2022-08-03T23:08:14.525Z,19.83
2022-08-03T23:10:46.650Z,19.81
2022-08-03T23:13:16.344Z,19.75
2022-08-03T23:15:48.776Z,19.67
2022-08-03T23:18:16.167Z,19.62
2022-08-03T23:20:44.709Z,19.59
2022-08-03T23:23:12.526Z,19.54
2022-08-03T23:25:41.484Z,19.51
2022-08-03T23:28:08.930Z,19.46
2022-08-03T23:30:37.248Z,19.41
2022-08-03T23:33:04.206Z,19.39
2022-08-03T23:36:28.210Z,19.28
2022-08-03T23:38:22.621Z,19.29
2022-08-03T23:40:51.325Z,19.28
2022-08-03T23:43:45.150Z,19.27
2022-08-03T23:46:06.645Z,19.22
2022-08-03T23:48:33.974Z,19.20
2022-08-03T23:51:03.103Z,19.14
2022-08-03T23:53:40.643Z,19.06
2022-08-03T23:56:07.510Z,19.03
2022-08-03T23:58:43.330Z,18.91
